Time,TemperatureF,DewpointF,PressureIn,WindDirection,WindDirectionDegrees,WindSpeedMPH,WindSpeedGustMPH,Humidity,HourlyPrecipIn,Conditions,Clouds,dailyrainin,SolarRadiationWatts/m^2,SoftwareType,DateUTC
2013-09-24 00:01:00,75.7,75.4,29.96,South,180,4.5,4.5,99,0.06,,,0.00,1616.0,meteobridge,2013-09-24 04:01:00,
2013-09-24 00:02:00,75.7,75.4,29.96,East,90,5.4,5.4,99,0.06,,,0.00,1616.0,meteobridge,2013-09-24 04:02:00,
2013-09-24 00:04:00,75.7,75.4,29.96,East,90,6.9,6.9,99,0.06,,,0.00,1616.0,meteobridge,2013-09-24 04:04:00,
2013-09-24 00:09:00,75.7,75.4,29.96,SE,135,8.3,8.3,99,0.06,,,0.00,1580.0,meteobridge,2013-09-24 04:09:00,
2013-09-24 00:14:00,75.7,75.4,29.97,SE,135,5.4,5.4,99,0.01,,,0.00,1580.0,meteobridge,2013-09-24 04:14:00,
2013-09-24 00:19:00,75.7,75.4,29.96,East,90,9.8,9.8,99,0.01,,,0.00,1580.0,meteobridge,2013-09-24 04:19:00,
2013-09-24 00:24:00,75.7,75.4,29.96,SE,135,6.9,7.6,99,0.01,,,0.00,1580.0,meteobridge,2013-09-24 04:24:00,
2013-09-24 00:29:00,75.6,75.2,29.95,East,90,4.5,9.8,99,0.01,,,0.00,1580.0,meteobridge,2013-09-24 04:29:00,
2013-09-24 00:35:00,75.6,75.2,29.96,SSE,158,8.3,8.3,99,0.01,,,0.00,1580.0,meteobridge,2013-09-24 04:35:00,
2013-09-24 00:40:00,75.6,75.2,29.96,South,180,4.5,5.4,99,0.01,,,0.00,1580.0,meteobridge,2013-09-24 04:40:00,
2013-09-24 00:45:00,75.6,75.2,29.95,East,90,5.4,6.9,99,0.01,,,0.00,1580.0,meteobridge,2013-09-24 04:45:00,
2013-09-24 00:50:00,75.4,75.0,29.95,SE,135,6.9,6.9,99,0.00,,,0.00,1580.0,meteobridge,2013-09-24 04:50:00,
2013-09-24 00:55:00,75.4,75.0,29.95,East,90,4.5,7.6,99,0.00,,,0.00,1580.0,meteobridge,2013-09-24 04:55:00,
2013-09-24 01:00:00,75.4,75.0,29.95,SE,135,6.0,6.0,99,0.00,,,0.00,1580.0,meteobridge,2013-09-24 05:00:00,
2013-09-24 01:06:00,75.2,74.8,29.95,ESE,113,6.0,6.0,99,0.00,,,0.00,1580.0,meteobridge,2013-09-24 05:06:00,
2013-09-24 01:11:00,75.2,74.8,29.95,SE,135,3.8,5.4,99,0.00,,,0.00,1580.0,meteobridge,2013-09-24 05:11:00,
2013-09-24 01:16:00,75.2,74.8,29.95,SE,135,4.5,5.4,99,0.00,,,0.00,1580.0,meteobridge,2013-09-24 05:16:00,
2013-09-24 01:21:00,75.2,74.8,29.95,NNE,23,3.1,3.8,99,0.00,,,0.00,1580.0,meteobridge,2013-09-24 05:21:00,
2013-09-24 01:26:00,75.2,74.8,29.95,SSE,158,6.0,6.0,99,0.00,,,0.00,1543.0,meteobridge,2013-09-24 05:26:00,
2013-09-24 01:31:00,75.0,74.7,29.95,South,180,2.2,4.5,99,0.00,,,0.00,1543.0,meteobridge,2013-09-24 05:31:00,
2013-09-24 01:37:00,75.0,74.7,29.95,ESE,113,6.0,6.0,99,0.00,,,0.00,1543.0,meteobridge,2013-09-24 05:37:00,
2013-09-24 01:42:00,75.2,74.8,29.95,South,180,2.2,3.1,99,0.00,,,0.00,1543.0,meteobridge,2013-09-24 05:42:00,
2013-09-24 01:47:00,75.2,74.8,29.95,SW,225,1.6,3.1,99,0.00,,,0.00,1543.0,meteobridge,2013-09-24 05:47:00,
2013-09-24 01:52:00,75.2,74.8,29.96,South,180,3.1,3.1,99,0.01,,,0.01,1543.0,meteobridge,2013-09-24 05:52:00,
2013-09-24 01:57:00,75.2,74.8,29.96,ESE,113,2.2,2.2,99,0.01,,,0.01,1543.0,meteobridge,2013-09-24 05:57:00,
2013-09-24 02:02:00,75.0,74.7,29.96,South,180,1.6,2.2,99,0.01,,,0.01,1543.0,meteobridge,2013-09-24 06:02:00,
2013-09-24 02:08:00,75.2,74.8,29.96,South,180,2.2,3.1,99,0.02,,,0.02,1543.0,meteobridge,2013-09-24 06:08:00,
2013-09-24 02:13:00,75.2,74.8,29.96,WSW,248,3.1,4.5,99,0.04,,,0.04,1543.0,meteobridge,2013-09-24 06:13:00,
2013-09-24 02:18:00,75.2,74.8,29.96,South,180,3.8,3.8,99,0.05,,,0.05,1506.0,meteobridge,2013-09-24 06:18:00,
2013-09-24 02:23:00,75.2,74.8,29.96,South,180,1.6,2.2,99,0.06,,,0.06,1506.0,meteobridge,2013-09-24 06:23:00,
2013-09-24 02:28:00,75.2,74.8,29.96,SW,225,3.1,3.8,99,0.08,,,0.08,1506.0,meteobridge,2013-09-24 06:28:00,
2013-09-24 02:33:00,75.2,74.8,29.95,SE,135,2.2,3.8,99,0.09,,,0.09,1506.0,meteobridge,2013-09-24 06:33:00,
2013-09-24 02:39:00,75.4,75.0,29.95,South,180,1.6,4.5,99,0.11,,,0.11,1506.0,meteobridge,2013-09-24 06:39:00,
2013-09-24 02:44:00,75.4,75.0,29.95,East,90,2.2,2.2,99,0.13,,,0.13,1470.0,meteobridge,2013-09-24 06:44:00,
2013-09-24 02:49:00,75.4,75.0,29.95,South,180,1.6,3.1,99,0.14,,,0.14,1470.0,meteobridge,2013-09-24 06:49:00,
2013-09-24 02:54:00,75.2,74.8,29.95,South,180,3.8,3.8,99,0.14,,,0.15,1470.0,meteobridge,2013-09-24 06:54:00,
2013-09-24 02:59:00,75.2,74.8,29.95,West,270,2.2,5.4,99,0.15,,,0.17,1470.0,meteobridge,2013-09-24 06:59:00,
2013-09-24 03:04:00,75.2,74.8,29.95,South,180,1.6,2.2,99,0.17,,,0.18,1470.0,meteobridge,2013-09-24 07:04:00,
2013-09-24 03:10:00,75.2,74.8,29.94,South,180,1.6,1.6,99,0.17,,,0.19,1470.0,meteobridge,2013-09-24 07:10:00,
2013-09-24 03:15:00,75.4,75.0,29.94,SSE,158,3.1,3.1,99,0.17,,,0.20,1433.0,meteobridge,2013-09-24 07:15:00,
2013-09-24 03:20:00,75.4,75.0,29.93,South,180,3.1,3.8,99,0.17,,,0.22,1433.0,meteobridge,2013-09-24 07:20:00,
2013-09-24 03:25:00,75.4,75.0,29.93,SSW,203,3.8,3.8,99,0.14,,,0.22,1433.0,meteobridge,2013-09-24 07:25:00,
2013-09-24 03:30:00,75.2,74.8,29.93,South,180,2.2,2.2,99,0.15,,,0.24,1433.0,meteobridge,2013-09-24 07:30:00,
2013-09-24 03:35:00,75.2,74.8,29.93,SSE,158,0.0,1.6,99,0.14,,,0.25,1433.0,meteobridge,2013-09-24 07:35:00,
2013-09-24 03:41:00,75.2,74.8,29.93,South,180,1.6,3.1,99,0.14,,,0.26,1433.0,meteobridge,2013-09-24 07:41:00,
2013-09-24 03:46:00,75.2,74.8,29.93,SW,225,3.1,3.1,99,0.15,,,0.28,1433.0,meteobridge,2013-09-24 07:46:00,
2013-09-24 03:51:00,75.2,74.8,29.93,SE,135,3.1,3.1,99,0.14,,,0.30,1433.0,meteobridge,2013-09-24 07:51:00,
2013-09-24 03:56:00,75.2,74.8,29.93,NE,45,2.2,3.1,99,0.17,,,0.32,1396.0,meteobridge,2013-09-24 07:56:00,
2013-09-24 04:01:00,75.2,74.8,29.93,South,180,2.2,2.2,99,0.15,,,0.32,1396.0,meteobridge,2013-09-24 08:01:00,
2013-09-24 04:06:00,75.2,74.8,29.93,SE,135,2.2,2.2,99,0.17,,,0.34,1396.0,meteobridge,2013-09-24 08:06:00,
2013-09-24 04:12:00,75.2,74.8,29.93,SSE,158,2.2,2.2,99,0.15,,,0.35,1396.0,meteobridge,2013-09-24 08:12:00,
2013-09-24 04:17:00,75.2,74.8,29.93,SE,135,2.2,3.1,99,0.15,,,0.37,1396.0,meteobridge,2013-09-24 08:17:00,
2013-09-24 04:22:00,75.2,74.8,29.92,East,90,2.2,3.1,99,0.15,,,0.38,1396.0,meteobridge,2013-09-24 08:22:00,
2013-09-24 04:27:00,75.2,74.8,29.92,South,180,3.1,4.5,99,0.14,,,0.38,1396.0,meteobridge,2013-09-24 08:27:00,
2013-09-24 04:32:00,75.2,74.8,29.92,SE,135,2.2,3.1,99,0.14,,,0.39,1396.0,meteobridge,2013-09-24 08:32:00,
2013-09-24 04:37:00,75.2,74.8,29.92,South,180,3.1,3.1,99,0.14,,,0.39,1360.0,meteobridge,2013-09-24 08:37:00,
2013-09-24 04:43:00,75.4,75.0,29.92,South,180,4.5,4.5,99,0.12,,,0.39,1360.0,meteobridge,2013-09-24 08:43:00,
2013-09-24 04:48:00,75.4,75.0,29.91,West,270,3.1,4.5,99,0.09,,,0.39,1360.0,meteobridge,2013-09-24 08:48:00,
2013-09-24 04:53:00,75.2,74.8,29.92,South,180,4.5,5.4,99,0.08,,,0.39,1360.0,meteobridge,2013-09-24 08:53:00,
2013-09-24 04:58:00,75.2,74.8,29.92,NE,45,2.2,2.2,99,0.07,,,0.39,1360.0,meteobridge,2013-09-24 08:58:00,
2013-09-24 05:03:00,75.2,74.8,29.91,East,90,2.2,3.1,99,0.06,,,0.39,1360.0,meteobridge,2013-09-24 09:03:00,
2013-09-24 05:08:00,75.4,75.0,29.92,South,180,1.6,3.1,99,0.05,,,0.39,1360.0,meteobridge,2013-09-24 09:08:00,
2013-09-24 05:14:00,75.2,74.8,29.92,South,180,1.6,3.1,99,0.02,,,0.39,1360.0,meteobridge,2013-09-24 09:14:00,
2013-09-24 05:19:00,75.2,74.8,29.92,South,180,0.7,2.2,99,0.02,,,0.39,1323.0,meteobridge,2013-09-24 09:19:00,
2013-09-24 05:24:00,75.2,74.8,29.92,South,180,3.8,3.8,99,0.01,,,0.39,1323.0,meteobridge,2013-09-24 09:24:00,
2013-09-24 05:29:00,75.2,74.8,29.92,South,180,3.8,3.8,99,0.01,,,0.39,1323.0,meteobridge,2013-09-24 09:29:00,
2013-09-24 05:34:00,75.2,74.8,29.92,South,180,1.6,1.6,99,0.00,,,0.39,1323.0,meteobridge,2013-09-24 09:34:00,
2013-09-24 05:39:00,75.2,74.8,29.92,South,180,0.7,1.6,99,0.00,,,0.39,1323.0,meteobridge,2013-09-24 09:39:00,
2013-09-24 05:45:00,75.2,74.8,29.93,SW,225,0.7,1.6,99,0.00,,,0.39,1287.0,meteobridge,2013-09-24 09:45:00,
2013-09-24 05:50:00,75.2,74.8,29.93,SSW,203,1.6,1.6,99,0.00,,,0.39,1287.0,meteobridge,2013-09-24 09:50:00,
2013-09-24 05:55:00,75.2,74.8,29.93,SSW,203,2.2,2.2,99,0.00,,,0.39,1287.0,meteobridge,2013-09-24 09:55:00,
2013-09-24 06:00:00,75.2,74.8,29.93,SE,135,1.6,1.6,99,0.00,,,0.39,1287.0,meteobridge,2013-09-24 10:00:00,
2013-09-24 06:05:00,75.4,75.0,29.93,South,180,0.7,1.6,99,0.00,,,0.39,1287.0,meteobridge,2013-09-24 10:05:00,
2013-09-24 06:11:00,75.4,75.0,29.93,South,180,1.6,1.6,99,0.00,,,0.39,1287.0,meteobridge,2013-09-24 10:11:00,
2013-09-24 06:16:00,75.4,75.0,29.93,South,180,0.0,1.6,99,0.00,,,0.39,1287.0,meteobridge,2013-09-24 10:16:00,
2013-09-24 06:21:00,75.4,75.0,29.93,South,180,1.6,1.6,99,0.01,,,0.40,1287.0,meteobridge,2013-09-24 10:21:00,
2013-09-24 06:26:00,75.6,75.2,29.93,West,270,0.7,1.6,99,0.02,,,0.41,1250.0,meteobridge,2013-09-24 10:26:00,
2013-09-24 06:31:00,75.6,75.2,29.93,South,180,0.7,0.7,99,0.02,,,0.41,1250.0,meteobridge,2013-09-24 10:31:00,
2013-09-24 06:36:00,75.6,75.2,29.93,SE,135,0.0,0.0,99,0.02,,,0.41,1250.0,meteobridge,2013-09-24 10:36:00,
2013-09-24 06:42:00,75.6,75.2,29.93,SW,225,1.6,1.6,99,0.02,,,0.41,1250.0,meteobridge,2013-09-24 10:42:00,
2013-09-24 06:47:00,75.6,75.2,29.93,SE,135,0.7,0.7,99,0.04,,,0.43,1250.0,meteobridge,2013-09-24 10:47:00,
2013-09-24 06:52:00,75.6,75.2,29.93,North,0,0.0,0.0,99,0.05,,,0.44,1250.0,meteobridge,2013-09-24 10:52:00,
2013-09-24 06:57:00,75.6,75.2,29.93,South,180,0.7,0.7,99,0.05,,,0.44,1250.0,meteobridge,2013-09-24 10:57:00,
2013-09-24 07:02:00,75.6,75.2,29.93,SW,225,0.7,1.6,99,0.05,,,0.44,1250.0,meteobridge,2013-09-24 11:02:00,
2013-09-24 07:07:00,75.6,75.2,29.93,East,90,1.6,2.2,99,0.05,,,0.44,1250.0,meteobridge,2013-09-24 11:07:00,
2013-09-24 07:13:00,75.6,75.2,29.93,South,180,1.6,1.6,99,0.06,,,0.45,1250.0,meteobridge,2013-09-24 11:13:00,
2013-09-24 07:18:00,75.7,75.4,29.94,South,180,2.2,2.2,99,0.05,,,0.45,1213.0,meteobridge,2013-09-24 11:18:00,
2013-09-24 07:23:00,75.6,75.2,29.94,East,90,2.2,2.2,99,0.05,,,0.45,1213.0,meteobridge,2013-09-24 11:23:00,
2013-09-24 07:28:00,75.6,75.2,29.93,South,180,1.6,2.2,99,0.05,,,0.46,1213.0,meteobridge,2013-09-24 11:28:00,
2013-09-24 07:33:00,75.6,75.2,29.93,NE,45,1.6,1.6,99,0.05,,,0.46,1213.0,meteobridge,2013-09-24 11:33:00,
2013-09-24 07:38:00,75.7,75.4,29.93,NE,45,0.7,1.6,99,0.05,,,0.46,1213.0,meteobridge,2013-09-24 11:38:00,
2013-09-24 07:44:00,75.7,75.4,29.94,South,180,2.2,2.2,99,0.04,,,0.46,1213.0,meteobridge,2013-09-24 11:44:00,
2013-09-24 07:49:00,75.7,75.4,29.94,East,90,2.2,2.2,99,0.04,,,0.46,1213.0,meteobridge,2013-09-24 11:49:00,
2013-09-24 07:54:00,75.7,75.4,29.94,East,90,0.7,1.6,99,0.04,,,0.47,1177.0,meteobridge,2013-09-24 11:54:00,
2013-09-24 07:59:00,75.9,75.6,29.95,South,180,0.7,0.7,99,0.05,,,0.48,1177.0,meteobridge,2013-09-24 11:59:00,
2013-09-24 08:04:00,75.9,75.6,29.95,West,270,0.0,0.0,99,0.05,,,0.48,1177.0,meteobridge,2013-09-24 12:04:00,
2013-09-24 08:09:00,75.9,75.6,29.96,West,270,0.0,0.0,99,0.05,,,0.50,1177.0,meteobridge,2013-09-24 12:09:00,
2013-09-24 08:15:00,75.9,75.6,29.95,West,270,0.0,0.0,99,0.06,,,0.51,1177.0,meteobridge,2013-09-24 12:15:00,
2013-09-24 08:20:00,75.9,75.6,29.95,East,90,1.6,2.2,99,0.06,,,0.51,1177.0,meteobridge,2013-09-24 12:20:00,
2013-09-24 08:25:00,76.1,75.7,29.95,East,90,2.2,3.1,99,0.07,,,0.52,1177.0,meteobridge,2013-09-24 12:25:00,
2013-09-24 08:30:00,76.3,75.9,29.95,East,90,1.6,1.6,99,0.07,,,0.53,1177.0,meteobridge,2013-09-24 12:30:00,
2013-09-24 08:35:00,76.3,75.9,29.95,East,90,0.7,1.6,99,0.07,,,0.53,1140.0,meteobridge,2013-09-24 12:35:00,
2013-09-24 08:40:00,76.1,75.7,29.96,NE,45,1.6,1.6,99,0.08,,,0.54,1140.0,meteobridge,2013-09-24 12:40:00,
2013-09-24 08:46:00,76.1,75.7,29.96,East,90,1.6,1.6,99,0.09,,,0.56,1140.0,meteobridge,2013-09-24 12:46:00,
2013-09-24 08:51:00,76.1,75.7,29.96,East,90,2.2,2.2,99,0.08,,,0.56,1140.0,meteobridge,2013-09-24 12:51:00,
2013-09-24 08:56:00,76.3,75.9,29.95,East,90,2.2,2.2,99,0.09,,,0.57,1140.0,meteobridge,2013-09-24 12:56:00,
2013-09-24 09:01:00,76.3,75.9,29.96,East,90,2.2,2.2,99,0.09,,,0.58,1140.0,meteobridge,2013-09-24 13:01:00,
2013-09-24 09:06:00,76.1,75.7,29.95,East,90,2.2,3.1,99,0.11,,,0.60,1140.0,meteobridge,2013-09-24 13:06:00,
2013-09-24 09:11:00,76.1,75.7,29.96,East,90,3.1,3.1,99,0.12,,,0.61,1140.0,meteobridge,2013-09-24 13:11:00,
2013-09-24 09:17:00,76.1,75.7,29.96,East,90,1.6,2.2,99,0.12,,,0.63,1104.0,meteobridge,2013-09-24 13:17:00,
2013-09-24 09:22:00,76.1,75.7,29.96,East,90,3.1,3.1,99,0.12,,,0.64,1104.0,meteobridge,2013-09-24 13:22:00,
2013-09-24 09:27:00,76.1,75.7,29.96,NW,315,0.0,0.0,99,0.12,,,0.64,1104.0,meteobridge,2013-09-24 13:27:00,
2013-09-24 09:32:00,76.1,75.7,29.96,NE,45,0.0,0.0,99,0.11,,,0.64,1104.0,meteobridge,2013-09-24 13:32:00,
2013-09-24 09:37:00,76.1,75.7,29.96,East,90,3.1,3.1,99,0.12,,,0.65,1104.0,meteobridge,2013-09-24 13:37:00,
2013-09-24 09:42:00,76.3,75.9,29.97,East,90,1.6,3.1,99,0.15,,,0.70,1104.0,meteobridge,2013-09-24 13:42:00,
2013-09-24 09:48:00,76.1,75.7,29.98,South,180,3.1,3.1,99,0.14,,,0.70,1104.0,meteobridge,2013-09-24 13:48:00,
2013-09-24 09:53:00,76.1,75.7,29.98,NW,315,2.2,2.2,99,0.15,,,0.72,1104.0,meteobridge,2013-09-24 13:53:00,
2013-09-24 09:58:00,76.1,75.7,29.98,North,0,3.8,4.5,99,0.14,,,0.72,1067.0,meteobridge,2013-09-24 13:58:00,
2013-09-24 10:03:00,76.1,75.7,29.99,SW,225,3.8,4.5,99,0.19,,,0.78,1067.0,meteobridge,2013-09-24 14:03:00,
2013-09-24 10:08:00,76.1,75.7,30.00,SW,225,3.1,3.8,99,0.34,,,0.94,1067.0,meteobridge,2013-09-24 14:08:00,
2013-09-24 10:13:00,76.1,75.7,29.99,West,270,2.2,2.2,99,0.57,,,1.19,1067.0,meteobridge,2013-09-24 14:13:00,
2013-09-24 10:19:00,75.9,75.6,29.98,North,0,0.7,0.7,99,0.61,,,1.25,1067.0,meteobridge,2013-09-24 14:19:00,
2013-09-24 10:24:00,75.7,75.4,29.98,East,90,1.6,2.2,99,0.61,,,1.25,1067.0,meteobridge,2013-09-24 14:24:00,
2013-09-24 10:29:00,75.7,75.4,29.98,West,270,1.6,3.1,99,0.63,,,1.26,1067.0,meteobridge,2013-09-24 14:29:00,
2013-09-24 10:34:00,75.6,75.2,29.97,West,270,2.2,2.2,99,0.69,,,1.32,1067.0,meteobridge,2013-09-24 14:34:00,
2013-09-24 10:39:00,75.4,75.0,29.97,NW,315,0.0,0.7,99,0.66,,,1.33,1067.0,meteobridge,2013-09-24 14:39:00,
2013-09-24 10:44:00,75.2,74.8,29.98,South,180,1.6,2.2,99,0.64,,,1.33,1067.0,meteobridge,2013-09-24 14:44:00,
2013-09-24 10:50:00,75.2,74.8,29.96,East,90,3.8,3.8,99,0.63,,,1.35,1067.0,meteobridge,2013-09-24 14:50:00,
2013-09-24 10:55:00,75.4,75.0,29.97,SE,135,3.1,3.8,99,0.63,,,1.35,1030.0,meteobridge,2013-09-24 14:55:00,
2013-09-24 11:00:00,75.6,75.2,29.96,East,90,2.2,3.1,99,0.60,,,1.35,1030.0,meteobridge,2013-09-24 15:00:00,
2013-09-24 11:05:00,75.4,75.0,29.96,South,180,2.2,3.1,99,0.54,,,1.36,1030.0,meteobridge,2013-09-24 15:05:00,
2013-09-24 11:10:00,75.2,74.8,29.96,South,180,2.2,3.1,99,0.27,,,1.36,1030.0,meteobridge,2013-09-24 15:10:00,
2013-09-24 11:15:00,75.4,75.0,29.96,South,180,3.1,3.1,99,0.14,,,1.37,1030.0,meteobridge,2013-09-24 15:15:00,
2013-09-24 11:21:00,75.4,75.0,29.96,SW,225,1.6,1.6,99,0.13,,,1.38,1030.0,meteobridge,2013-09-24 15:21:00,
2013-09-24 11:26:00,75.4,75.0,29.96,SW,225,3.1,3.1,99,0.13,,,1.39,1030.0,meteobridge,2013-09-24 15:26:00,
2013-09-24 11:31:00,75.4,75.0,29.96,SE,135,4.5,5.4,99,0.12,,,1.41,1030.0,meteobridge,2013-09-24 15:31:00,
2013-09-24 11:36:00,75.6,75.2,29.96,SSW,203,4.5,4.5,99,0.08,,,1.42,1030.0,meteobridge,2013-09-24 15:36:00,
2013-09-24 11:41:00,75.4,75.0,29.95,SW,225,3.8,3.8,99,0.09,,,1.43,1030.0,meteobridge,2013-09-24 15:41:00,
2013-09-24 11:46:00,75.2,74.8,29.96,South,180,5.4,5.4,99,0.11,,,1.44,1030.0,meteobridge,2013-09-24 15:46:00,
2013-09-24 11:52:00,75.2,74.8,29.95,SW,225,1.6,3.1,99,0.12,,,1.46,1030.0,meteobridge,2013-09-24 15:52:00,
2013-09-24 11:57:00,75.4,75.0,29.94,SW,225,0.7,1.6,99,0.13,,,1.48,1030.0,meteobridge,2013-09-24 15:57:00,
2013-09-24 12:02:00,75.4,75.0,29.95,WSW,248,1.6,1.6,99,0.13,,,1.48,1030.0,meteobridge,2013-09-24 16:02:00,
2013-09-24 12:07:00,75.4,75.0,29.95,West,270,0.7,1.6,99,0.14,,,1.50,994.0,meteobridge,2013-09-24 16:07:00,
2013-09-24 12:12:00,75.4,75.0,29.96,SW,225,2.2,2.2,99,0.15,,,1.51,994.0,meteobridge,2013-09-24 16:12:00,
2013-09-24 12:18:00,75.2,74.8,29.95,South,180,2.2,4.5,99,0.15,,,1.52,994.0,meteobridge,2013-09-24 16:18:00,
2013-09-24 12:23:00,75.2,74.8,29.95,NW,315,3.1,3.1,99,0.15,,,1.54,994.0,meteobridge,2013-09-24 16:23:00,
2013-09-24 12:28:00,75.2,74.8,29.96,SW,225,3.8,3.8,99,0.13,,,1.54,994.0,meteobridge,2013-09-24 16:28:00,
2013-09-24 12:33:00,75.2,74.8,29.95,SW,225,3.1,3.8,99,0.13,,,1.55,994.0,meteobridge,2013-09-24 16:33:00,
2013-09-24 12:38:00,75.2,74.8,29.94,South,180,4.5,6.0,99,0.14,,,1.57,994.0,meteobridge,2013-09-24 16:38:00,
2013-09-24 12:43:00,75.0,74.7,29.94,South,180,5.4,6.9,99,0.14,,,1.58,994.0,meteobridge,2013-09-24 16:43:00,
2013-09-24 12:49:00,75.0,74.7,29.94,South,180,3.8,5.4,99,0.14,,,1.59,994.0,meteobridge,2013-09-24 16:49:00,
2013-09-24 12:54:00,75.0,74.7,29.93,SW,225,4.5,5.4,99,0.15,,,1.62,994.0,meteobridge,2013-09-24 16:54:00,
2013-09-24 12:59:00,75.0,74.7,29.93,South,180,6.0,6.0,99,0.15,,,1.63,994.0,meteobridge,2013-09-24 16:59:00,
2013-09-24 13:04:00,75.0,74.7,29.93,NNE,23,9.2,9.2,99,0.15,,,1.64,994.0,meteobridge,2013-09-24 17:04:00,
2013-09-24 13:09:00,75.0,74.7,29.93,SE,135,7.6,7.6,99,0.15,,,1.65,994.0,meteobridge,2013-09-24 17:09:00,
2013-09-24 13:14:00,75.0,74.7,29.93,SW,225,8.3,8.3,99,0.15,,,1.68,994.0,meteobridge,2013-09-24 17:14:00,
2013-09-24 13:20:00,74.8,74.5,29.93,South,180,7.6,7.6,99,0.17,,,1.69,994.0,meteobridge,2013-09-24 17:20:00,
2013-09-24 13:25:00,74.8,74.5,29.92,South,180,6.9,9.2,99,0.17,,,1.70,994.0,meteobridge,2013-09-24 17:25:00,
2013-09-24 13:30:00,74.8,74.5,29.92,SW,225,8.3,8.3,99,0.17,,,1.71,994.0,meteobridge,2013-09-24 17:30:00,
2013-09-24 13:35:00,74.8,74.5,29.91,South,180,3.8,3.8,99,0.17,,,1.72,1030.0,meteobridge,2013-09-24 17:35:00,
2013-09-24 13:40:00,74.8,74.5,29.91,SE,135,6.9,6.9,99,0.17,,,1.74,1030.0,meteobridge,2013-09-24 17:40:00,
2013-09-24 13:45:00,74.8,74.5,29.91,SW,225,4.5,6.0,99,0.15,,,1.75,1030.0,meteobridge,2013-09-24 17:45:00,
2013-09-24 13:51:00,74.8,74.5,29.91,South,180,3.8,6.0,99,0.15,,,1.76,1030.0,meteobridge,2013-09-24 17:51:00,
2013-09-24 13:56:00,75.0,74.7,29.91,SW,225,6.0,6.0,99,0.15,,,1.77,1030.0,meteobridge,2013-09-24 17:56:00,
2013-09-24 14:01:00,75.0,74.7,29.91,SE,135,3.1,3.1,99,0.14,,,1.78,1030.0,meteobridge,2013-09-24 18:01:00,
2013-09-24 14:06:00,75.0,74.7,29.91,SW,225,3.8,3.8,99,0.14,,,1.80,1067.0,meteobridge,2013-09-24 18:06:00,
2013-09-24 14:11:00,75.2,74.8,29.91,SSW,203,2.2,5.4,99,0.14,,,1.81,1067.0,meteobridge,2013-09-24 18:11:00,
2013-09-24 14:16:00,75.2,74.8,29.92,SSW,203,3.8,5.4,99,0.14,,,1.82,1067.0,meteobridge,2013-09-24 18:16:00,
2013-09-24 14:22:00,75.4,75.0,29.91,South,180,2.2,3.1,99,0.14,,,1.83,1067.0,meteobridge,2013-09-24 18:22:00,
2013-09-24 14:27:00,75.6,75.2,29.91,East,90,3.8,5.4,99,0.13,,,1.83,1067.0,meteobridge,2013-09-24 18:27:00,
2013-09-24 14:32:00,75.6,75.2,29.91,SW,225,3.1,6.0,99,0.13,,,1.84,1067.0,meteobridge,2013-09-24 18:32:00,
2013-09-24 14:37:00,75.7,75.4,29.91,SW,225,3.1,3.8,99,0.12,,,1.85,1104.0,meteobridge,2013-09-24 18:37:00,
2013-09-24 14:42:00,75.7,75.4,29.91,South,180,6.0,7.6,99,0.11,,,1.85,1104.0,meteobridge,2013-09-24 18:42:00,
2013-09-24 14:47:00,75.7,75.4,29.90,SSW,203,3.8,3.8,99,0.09,,,1.85,1104.0,meteobridge,2013-09-24 18:47:00,
2013-09-24 14:53:00,75.7,75.4,29.90,South,180,6.0,6.9,99,0.08,,,1.85,1104.0,meteobridge,2013-09-24 18:53:00,
2013-09-24 14:58:00,75.7,75.4,29.91,SW,225,5.4,5.4,99,0.07,,,1.85,1104.0,meteobridge,2013-09-24 18:58:00,
2013-09-24 15:03:00,75.6,75.2,29.91,South,180,8.3,8.3,99,0.06,,,1.85,1104.0,meteobridge,2013-09-24 19:03:00,
2013-09-24 15:08:00,75.7,75.4,29.90,South,180,6.9,6.9,99,0.05,,,1.85,1104.0,meteobridge,2013-09-24 19:08:00,
2013-09-24 15:13:00,75.7,75.4,29.90,SSW,203,4.5,4.5,99,0.05,,,1.85,1104.0,meteobridge,2013-09-24 19:13:00,
2013-09-24 15:18:00,75.7,75.4,29.90,South,180,5.4,5.4,99,0.04,,,1.85,1140.0,meteobridge,2013-09-24 19:18:00,
2013-09-24 15:24:00,75.7,75.4,29.90,South,180,3.1,3.8,99,0.04,,,1.87,1140.0,meteobridge,2013-09-24 19:24:00,
2013-09-24 15:29:00,75.7,75.4,29.90,South,180,5.4,6.0,99,0.02,,,1.87,1140.0,meteobridge,2013-09-24 19:29:00,
2013-09-24 15:34:00,75.9,75.6,29.91,SW,225,5.4,5.4,99,0.02,,,1.87,1140.0,meteobridge,2013-09-24 19:34:00,
2013-09-24 15:39:00,75.9,75.6,29.91,South,180,3.1,3.1,99,0.01,,,1.87,1177.0,meteobridge,2013-09-24 19:39:00,
2013-09-24 15:44:00,75.9,75.6,29.91,South,180,3.1,5.4,99,0.01,,,1.87,1177.0,meteobridge,2013-09-24 19:44:00,
2013-09-24 15:49:00,75.9,75.6,29.91,SSW,203,6.0,6.0,99,0.02,,,1.88,1177.0,meteobridge,2013-09-24 19:49:00,
2013-09-24 15:55:00,75.9,75.6,29.91,West,270,2.2,3.8,99,0.02,,,1.88,1177.0,meteobridge,2013-09-24 19:55:00,
2013-09-24 16:00:00,75.9,75.6,29.91,SW,225,4.5,4.5,99,0.04,,,1.89,1177.0,meteobridge,2013-09-24 20:00:00,
2013-09-24 16:05:00,76.1,75.7,29.91,South,180,4.5,5.4,99,0.04,,,1.89,1213.0,meteobridge,2013-09-24 20:05:00,
2013-09-24 16:10:00,76.1,75.7,29.91,North,0,3.8,5.4,99,0.05,,,1.90,1213.0,meteobridge,2013-09-24 20:10:00,
2013-09-24 16:15:00,75.9,75.6,29.91,South,180,5.4,6.0,99,0.05,,,1.90,1213.0,meteobridge,2013-09-24 20:15:00,
2013-09-24 16:20:00,75.9,75.6,29.90,SW,225,4.5,4.5,99,0.05,,,1.90,1213.0,meteobridge,2013-09-24 20:20:00,
2013-09-24 16:26:00,75.9,75.6,29.90,South,180,3.1,3.8,99,0.04,,,1.90,1213.0,meteobridge,2013-09-24 20:26:00,
2013-09-24 16:31:00,75.9,75.6,29.90,SSW,203,2.2,3.8,99,0.04,,,1.90,1213.0,meteobridge,2013-09-24 20:31:00,
2013-09-24 16:36:00,76.1,75.7,29.89,South,180,0.7,2.2,99,0.04,,,1.90,1250.0,meteobridge,2013-09-24 20:36:00,
2013-09-24 16:41:00,76.3,75.9,29.89,South,180,1.6,2.2,99,0.04,,,1.90,1250.0,meteobridge,2013-09-24 20:41:00,
2013-09-24 16:46:00,76.3,75.9,29.89,South,180,2.2,3.1,99,0.04,,,1.90,1250.0,meteobridge,2013-09-24 20:46:00,
2013-09-24 16:51:00,76.5,76.1,29.89,SW,225,3.8,3.8,99,0.02,,,1.90,1250.0,meteobridge,2013-09-24 20:51:00,
2013-09-24 16:57:00,76.5,76.1,29.89,South,180,2.2,4.5,99,0.02,,,1.90,1287.0,meteobridge,2013-09-24 20:57:00,
2013-09-24 17:02:00,76.5,76.1,29.89,SSW,203,3.8,3.8,99,0.01,,,1.90,1287.0,meteobridge,2013-09-24 21:02:00,
2013-09-24 17:07:00,76.6,76.3,29.89,SW,225,3.1,3.8,99,0.01,,,1.90,1287.0,meteobridge,2013-09-24 21:07:00,
2013-09-24 17:12:00,76.6,76.3,29.89,South,180,3.1,4.5,99,0.00,,,1.90,1287.0,meteobridge,2013-09-24 21:12:00,
2013-09-24 17:17:00,76.6,76.3,29.89,South,180,4.5,4.5,99,0.00,,,1.90,1323.0,meteobridge,2013-09-24 21:17:00,
2013-09-24 17:22:00,76.6,76.3,29.90,SW,225,3.8,3.8,99,0.00,,,1.90,1323.0,meteobridge,2013-09-24 21:22:00,
2013-09-24 17:28:00,76.6,76.3,29.89,South,180,4.5,5.4,99,0.00,,,1.90,1323.0,meteobridge,2013-09-24 21:28:00,
2013-09-24 17:33:00,76.6,76.3,29.89,South,180,7.6,7.6,99,0.00,,,1.90,1323.0,meteobridge,2013-09-24 21:33:00,
2013-09-24 17:38:00,76.6,76.3,29.89,SSW,203,5.4,6.0,99,0.00,,,1.90,1360.0,meteobridge,2013-09-24 21:38:00,
2013-09-24 17:43:00,76.6,76.3,29.89,ESE,113,3.8,4.5,99,0.00,,,1.90,1360.0,meteobridge,2013-09-24 21:43:00,
2013-09-24 17:48:00,76.5,76.1,29.88,South,180,3.1,3.1,99,0.00,,,1.90,1360.0,meteobridge,2013-09-24 21:48:00,
2013-09-24 17:53:00,76.5,76.1,29.88,South,180,3.8,4.5,99,0.00,,,1.90,1360.0,meteobridge,2013-09-24 21:53:00,
2013-09-24 17:59:00,76.5,76.1,29.88,SE,135,2.2,6.9,99,0.00,,,1.90,1396.0,meteobridge,2013-09-24 21:59:00,
2013-09-24 18:04:00,76.5,76.1,29.88,SE,135,3.8,5.4,99,0.00,,,1.90,1396.0,meteobridge,2013-09-24 22:04:00,
2013-09-24 18:09:00,76.5,76.1,29.88,SW,225,3.8,3.8,99,0.00,,,1.90,1396.0,meteobridge,2013-09-24 22:09:00,
2013-09-24 18:14:00,76.5,76.1,29.88,SW,225,3.8,3.8,99,0.00,,,1.90,1396.0,meteobridge,2013-09-24 22:14:00,
2013-09-24 18:19:00,76.5,76.1,29.88,South,180,3.8,3.8,99,0.00,,,1.90,1433.0,meteobridge,2013-09-24 22:19:00,
2013-09-24 18:25:00,76.5,76.1,29.88,South,180,2.2,3.8,99,0.00,,,1.90,1433.0,meteobridge,2013-09-24 22:25:00,
2013-09-24 18:30:00,76.5,76.1,29.88,SE,135,2.2,6.0,99,0.00,,,1.90,1433.0,meteobridge,2013-09-24 22:30:00,
2013-09-24 18:35:00,76.5,76.1,29.88,South,180,1.6,3.8,99,0.00,,,1.90,1470.0,meteobridge,2013-09-24 22:35:00,
2013-09-24 18:40:00,76.5,76.1,29.88,South,180,3.1,3.1,99,0.00,,,1.90,1470.0,meteobridge,2013-09-24 22:40:00,
2013-09-24 18:45:00,76.5,76.1,29.88,SW,225,3.8,4.5,99,0.00,,,1.90,1506.0,meteobridge,2013-09-24 22:45:00,
2013-09-24 18:50:00,76.5,76.1,29.88,South,180,2.2,3.8,99,0.00,,,1.90,1506.0,meteobridge,2013-09-24 22:50:00,
2013-09-24 18:56:00,76.5,76.1,29.88,SSE,158,3.1,3.1,99,0.00,,,1.90,1506.0,meteobridge,2013-09-24 22:56:00,
2013-09-24 19:01:00,76.1,75.7,29.88,South,180,3.1,4.5,99,0.00,,,1.90,1506.0,meteobridge,2013-09-24 23:01:00,
2013-09-24 19:06:00,75.9,75.6,29.88,NE,45,3.8,3.8,99,0.00,,,1.90,1543.0,meteobridge,2013-09-24 23:06:00,
2013-09-24 19:11:00,75.9,75.6,29.88,SW,225,3.1,5.4,99,0.00,,,1.90,1543.0,meteobridge,2013-09-24 23:11:00,
2013-09-24 19:16:00,75.7,75.4,29.88,SW,225,1.6,3.8,99,0.00,,,1.90,1580.0,meteobridge,2013-09-24 23:16:00,
2013-09-24 19:21:00,75.7,75.4,29.89,South,180,3.8,3.8,99,0.00,,,1.90,1580.0,meteobridge,2013-09-24 23:21:00,
2013-09-24 19:27:00,75.7,75.4,29.89,SE,135,1.6,2.2,99,0.00,,,1.90,1580.0,meteobridge,2013-09-24 23:27:00,
2013-09-24 19:32:00,75.7,75.4,29.89,SE,135,2.2,2.2,99,0.00,,,1.90,1580.0,meteobridge,2013-09-24 23:32:00,
2013-09-24 19:37:00,75.7,75.4,29.89,SSW,203,2.2,2.2,99,0.00,,,1.90,1616.0,meteobridge,2013-09-24 23:37:00,
2013-09-24 19:42:00,75.7,75.4,29.90,South,180,1.6,2.2,99,0.00,,,1.90,1616.0,meteobridge,2013-09-24 23:42:00,
2013-09-24 19:47:00,75.7,75.4,29.90,SW,225,2.2,2.2,99,0.00,,,1.90,1616.0,meteobridge,2013-09-24 23:47:00,
2013-09-24 19:52:00,75.7,75.4,29.91,North,0,0.7,0.7,99,0.00,,,1.90,1616.0,meteobridge,2013-09-24 23:52:00,
2013-09-24 19:58:00,75.9,75.6,29.91,South,180,1.6,1.6,99,0.00,,,1.90,1653.0,meteobridge,2013-09-24 23:58:00,
2013-09-24 20:03:00,75.9,75.6,29.91,South,180,1.6,2.2,99,0.00,,,1.90,1653.0,meteobridge,2013-09-25 00:03:00,
2013-09-24 20:08:00,75.9,75.6,29.91,East,90,1.6,2.2,99,0.00,,,1.90,1689.0,meteobridge,2013-09-25 00:08:00,
2013-09-24 20:13:00,75.9,75.6,29.90,South,180,2.2,3.1,99,0.00,,,1.90,1689.0,meteobridge,2013-09-25 00:13:00,
2013-09-24 20:18:00,75.9,75.6,29.90,East,90,3.1,3.1,99,0.00,,,1.90,1689.0,meteobridge,2013-09-25 00:18:00,
2013-09-24 20:23:00,75.9,75.6,29.90,East,90,3.1,3.1,99,0.00,,,1.90,1689.0,meteobridge,2013-09-25 00:23:00,
2013-09-24 20:29:00,75.9,75.6,29.90,South,180,2.2,2.2,99,0.00,,,1.90,1689.0,meteobridge,2013-09-25 00:29:00,
2013-09-24 20:34:00,75.7,75.4,29.90,SW,225,2.2,3.1,99,0.00,,,1.90,1689.0,meteobridge,2013-09-25 00:34:00,
2013-09-24 20:39:00,75.6,75.2,29.90,South,180,1.6,3.1,99,0.00,,,1.90,1653.0,meteobridge,2013-09-25 00:39:00,
2013-09-24 20:44:00,75.6,75.2,29.90,SE,135,3.1,3.1,99,0.00,,,1.90,1653.0,meteobridge,2013-09-25 00:44:00,
2013-09-24 20:49:00,75.4,75.0,29.90,SW,225,2.2,2.2,99,0.00,,,1.90,1580.0,meteobridge,2013-09-25 00:49:00,
2013-09-24 20:54:00,75.2,74.8,29.90,SE,135,1.6,2.2,99,0.00,,,1.90,1580.0,meteobridge,2013-09-25 00:54:00,
2013-09-24 21:00:00,75.2,74.8,29.90,ESE,113,3.1,3.1,99,0.00,,,1.90,1580.0,meteobridge,2013-09-25 01:00:00,
2013-09-24 21:05:00,75.4,75.0,29.90,East,90,1.6,2.2,99,0.00,,,1.90,1580.0,meteobridge,2013-09-25 01:05:00,
2013-09-24 21:10:00,75.4,75.0,29.90,SW,225,1.6,3.1,99,0.00,,,1.90,1580.0,meteobridge,2013-09-25 01:10:00,
2013-09-24 21:15:00,75.6,75.2,29.90,SE,135,3.1,3.1,99,0.00,,,1.90,1580.0,meteobridge,2013-09-25 01:15:00,
2013-09-24 21:20:00,75.6,75.2,29.91,SE,135,2.2,3.1,99,0.00,,,1.90,1580.0,meteobridge,2013-09-25 01:20:00,
2013-09-24 21:25:00,75.6,75.2,29.90,South,180,3.1,3.1,99,0.00,,,1.90,1616.0,meteobridge,2013-09-25 01:25:00,
2013-09-24 21:30:00,75.6,75.2,29.91,South,180,1.6,1.6,99,0.00,,,1.90,1616.0,meteobridge,2013-09-25 01:30:00,
2013-09-24 21:36:00,75.4,75.0,29.91,South,180,1.6,3.1,99,0.00,,,1.90,1653.0,meteobridge,2013-09-25 01:36:00,
2013-09-24 21:41:00,75.4,75.0,29.91,South,180,1.6,3.8,99,0.00,,,1.90,1653.0,meteobridge,2013-09-25 01:41:00,
2013-09-24 21:46:00,75.4,75.0,29.90,South,180,1.6,3.1,99,0.00,,,1.90,1689.0,meteobridge,2013-09-25 01:46:00,
2013-09-24 21:51:00,75.4,75.0,29.90,South,180,2.2,3.1,99,0.00,,,1.90,1689.0,meteobridge,2013-09-25 01:51:00,
2013-09-24 21:56:00,75.4,75.0,29.91,SW,225,2.2,2.2,99,0.00,,,1.90,1689.0,meteobridge,2013-09-25 01:56:00,
2013-09-24 22:01:00,75.6,75.2,29.90,South,180,0.7,1.6,99,0.00,,,1.90,1689.0,meteobridge,2013-09-25 02:01:00,
2013-09-24 22:07:00,75.6,75.2,29.90,SW,225,0.7,1.6,99,0.00,,,1.90,1689.0,meteobridge,2013-09-25 02:07:00,
2013-09-24 22:12:00,75.6,75.2,29.90,South,180,0.7,0.7,99,0.00,,,1.90,1689.0,meteobridge,2013-09-25 02:12:00,
2013-09-24 22:17:00,75.6,75.2,29.90,West,270,0.7,2.2,99,0.00,,,1.90,1689.0,meteobridge,2013-09-25 02:17:00,
2013-09-24 22:22:00,75.6,75.2,29.91,South,180,0.7,0.7,99,0.00,,,1.90,1689.0,meteobridge,2013-09-25 02:22:00,
2013-09-24 22:27:00,75.6,75.2,29.90,South,180,0.0,0.0,99,0.00,,,1.90,1689.0,meteobridge,2013-09-25 02:27:00,
2013-09-24 22:32:00,75.6,75.2,29.91,South,180,0.0,0.0,99,0.00,,,1.90,1689.0,meteobridge,2013-09-25 02:32:00,
2013-09-24 22:38:00,75.6,75.2,29.90,South,180,0.0,0.0,99,0.00,,,1.90,1689.0,meteobridge,2013-09-25 02:38:00,
2013-09-24 22:43:00,75.4,75.0,29.90,South,180,1.6,1.6,99,0.00,,,1.90,1689.0,meteobridge,2013-09-25 02:43:00,
2013-09-24 22:48:00,75.6,75.2,29.91,SW,225,0.7,0.7,99,0.00,,,1.90,1689.0,meteobridge,2013-09-25 02:48:00,
2013-09-24 22:53:00,75.6,75.2,29.90,South,180,0.0,0.0,99,0.00,,,1.90,1689.0,meteobridge,2013-09-25 02:53:00,
2013-09-24 22:58:00,75.6,75.2,29.91,South,180,0.0,0.7,99,0.00,,,1.90,1689.0,meteobridge,2013-09-25 02:58:00,
2013-09-24 23:03:00,75.6,75.2,29.90,South,180,0.0,0.0,99,0.00,,,1.90,1689.0,meteobridge,2013-09-25 03:03:00,
2013-09-24 23:09:00,75.7,75.4,29.91,South,180,0.0,0.7,99,0.00,,,1.90,1689.0,meteobridge,2013-09-25 03:09:00,
2013-09-24 23:14:00,75.7,75.4,29.90,South,180,0.0,0.0,99,0.00,,,1.90,1689.0,meteobridge,2013-09-25 03:14:00,
2013-09-24 23:19:00,75.7,75.4,29.90,South,180,1.6,2.2,99,0.00,,,1.90,1689.0,meteobridge,2013-09-25 03:19:00,
2013-09-24 23:24:00,75.6,75.2,29.90,SW,225,1.6,1.6,99,0.00,,,1.90,1689.0,meteobridge,2013-09-25 03:24:00,
2013-09-24 23:29:00,75.6,75.2,29.90,South,180,0.7,1.6,99,0.00,,,1.90,1689.0,meteobridge,2013-09-25 03:29:00,
2013-09-24 23:34:00,75.7,75.4,29.89,SW,225,2.2,2.2,99,0.00,,,1.90,1689.0,meteobridge,2013-09-25 03:34:00,
2013-09-24 23:40:00,75.7,75.4,29.89,SE,135,1.6,1.6,99,0.00,,,1.90,1653.0,meteobridge,2013-09-25 03:40:00,
2013-09-24 23:45:00,75.9,75.6,29.88,SW,225,2.2,4.5,99,0.00,,,1.90,1653.0,meteobridge,2013-09-25 03:45:00,
2013-09-24 23:50:00,75.9,75.6,29.88,South,180,1.6,3.8,99,0.00,,,1.90,1653.0,meteobridge,2013-09-25 03:50:00,
2013-09-24 23:55:00,76.1,75.7,29.88,SSW,203,2.2,2.2,99,0.00,,,1.90,1653.0,meteobridge,2013-09-25 03:55:00,